Time;durP1;ratioP1;P1;durP2;ratioP2;P2;SDS_P1;SDS_P2;PMS_P1;PMS_P2;Temp;Humidity;BMP_temperature;BMP_pressure;BME280_temperature;BME280_humidity;BME280_pressure;Samples;Min_cycle;Max_cycle;Signal;HPM_P1;HPM_P2
2023/12/31 00:01:35;;;;;;;1.42;0.57;;;;;;;1.22;68.26;91190.00;5016593;28;20438;-84
2023/12/31 00:04:02;;;;;;;2.08;0.80;;;;;;;1.30;67.36;91186.56;5018954;28;20068;-85
2023/12/31 00:06:27;;;;;;;3.80;0.80;;;;;;;1.22;67.74;91185.53;4996766;28;20064;-85
2023/12/31 00:08:53;;;;;;;2.15;0.85;;;;;;;1.14;67.60;91189.75;5041123;28;20037;-85
2023/12/31 00:11:18;;;;;;;2.15;0.90;;;;;;;1.14;67.96;91183.78;5002775;28;20029;-85
2023/12/31 00:13:44;;;;;;;1.38;0.70;;;;;;;1.12;67.73;91180.75;5012086;28;20436;-84
2023/12/31 00:16:14;;;;;;;2.10;0.95;;;;;;;1.12;67.75;91183.34;5035760;28;20120;-85
2023/12/31 00:18:39;;;;;;;1.67;0.80;;;;;;;0.89;67.99;91181.06;5019679;28;20043;-84
2023/12/31 00:21:05;;;;;;;2.35;0.90;;;;;;;0.78;68.41;91177.31;5039698;28;20092;-85
2023/12/31 00:23:31;;;;;;;2.00;0.90;;;;;;;0.71;68.60;91179.69;5026414;28;20037;-85
2023/12/31 00:25:56;;;;;;;1.35;0.70;;;;;;;0.84;68.16;91173.47;5030001;28;20036;-84
2023/12/31 00:28:22;;;;;;;1.73;0.80;;;;;;;0.73;68.96;91174.94;5000996;28;20056;-84
2023/12/31 00:30:47;;;;;;;1.77;0.80;;;;;;;0.97;68.21;91168.31;5028895;28;20071;-84
2023/12/31 00:33:13;;;;;;;1.85;0.90;;;;;;;0.69;68.93;91168.81;5007320;28;20043;-85
2023/12/31 00:35:38;;;;;;;2.13;0.90;;;;;;;0.84;68.36;91172.69;5010395;28;20064;-85
2023/12/31 00:38:04;;;;;;;2.97;0.90;;;;;;;0.67;68.65;91171.75;5005477;28;20396;-84
2023/12/31 00:40:29;;;;;;;1.77;1.00;;;;;;;0.73;68.52;91167.13;5026797;28;20087;-86
2023/12/31 00:42:55;;;;;;;1.83;0.80;;;;;;;0.76;68.18;91165.72;5021071;28;20056;-85
2023/12/31 00:45:20;;;;;;;2.95;1.10;;;;;;;0.87;68.21;91162.41;5027181;28;20435;-85
2023/12/31 00:47:46;;;;;;;2.15;0.80;;;;;;;0.84;67.90;91159.66;5027473;28;20060;-84
2023/12/31 00:50:11;;;;;;;2.53;1.00;;;;;;;0.68;68.63;91162.84;5028659;28;20076;-84
2023/12/31 00:52:37;;;;;;;2.28;0.85;;;;;;;0.79;67.97;91159.88;5013327;28;20040;-85
2023/12/31 00:55:03;;;;;;;2.30;0.88;;;;;;;0.72;67.83;91164.81;5052150;28;20032;-84
2023/12/31 00:57:29;;;;;;;1.30;0.75;;;;;;;0.74;67.75;91165.28;5034058;28;20124;-85
2023/12/31 00:59:57;;;;;;;2.10;0.80;;;;;;;0.74;67.93;91167.88;5026216;28;20033;-85
2023/12/31 01:02:22;;;;;;;2.45;0.77;;;;;;;0.65;68.22;91160.13;5019417;28;20037;-87
2023/12/31 01:04:48;;;;;;;1.65;0.60;;;;;;;0.64;67.63;91161.22;5018784;28;20029;-85
2023/12/31 01:07:13;;;;;;;2.45;0.90;;;;;;;0.54;68.04;91162.38;5006299;28;20059;-84
2023/12/31 01:09:40;;;;;;;1.35;0.68;;;;;;;0.54;68.72;91157.16;5035155;28;20087;-84
2023/12/31 01:12:06;;;;;;;1.30;0.73;;;;;;;0.52;68.16;91161.91;5019183;28;20091;-83
2023/12/31 01:14:34;;;;;;;1.27;0.55;;;;;;;0.56;68.51;91157.59;5017189;28;20025;-84
2023/12/31 01:17:00;;;;;;;2.10;1.00;;;;;;;0.74;67.78;91153.00;5034973;28;20498;-85
2023/12/31 01:19:25;;;;;;;5.93;2.72;;;;;;;0.85;67.36;91156.00;5018106;28;20129;-86
2023/12/31 01:21:51;;;;;;;1.40;0.70;;;;;;;0.84;66.95;91151.88;4998879;28;20041;-85
2023/12/31 01:24:16;;;;;;;2.33;0.90;;;;;;;0.71;67.12;91152.91;5019208;28;20195;-84
2023/12/31 01:26:42;;;;;;;2.88;0.70;;;;;;;0.75;67.16;91148.56;5034747;28;20036;-85
2023/12/31 01:29:07;;;;;;;2.03;1.00;;;;;;;0.72;67.15;91151.81;5018816;28;20037;-84
2023/12/31 01:31:33;;;;;;;4.63;1.10;;;;;;;0.43;67.68;91146.34;5019106;28;20029;-86
2023/12/31 01:33:59;;;;;;;2.13;0.95;;;;;;;0.65;67.59;91149.72;5004195;28;20041;-83
2023/12/31 01:36:24;;;;;;;1.35;0.70;;;;;;;0.52;66.88;91148.16;5009992;28;20112;-85
2023/12/31 01:38:50;;;;;;;2.25;0.82;;;;;;;0.47;67.63;91143.13;5026933;28;20028;-84
2023/12/31 01:41:15;;;;;;;2.00;0.80;;;;;;;0.39;67.90;91145.47;5045802;28;20037;-85
2023/12/31 01:43:41;;;;;;;1.80;0.90;;;;;;;0.48;67.24;91134.97;5043325;28;20510;-85
2023/12/31 01:46:09;;;;;;;1.38;0.80;;;;;;;0.44;67.63;91129.66;5017716;28;20016;-85
2023/12/31 01:48:35;;;;;;;2.65;0.68;;;;;;;0.44;67.64;91136.72;5034316;28;20037;-85
2023/12/31 01:51:01;;;;;;;1.75;0.75;;;;;;;0.51;66.76;91131.75;5022667;28;20037;-85
2023/12/31 01:53:27;;;;;;;2.33;0.80;;;;;;;0.49;66.67;91120.16;5022877;28;20029;-85
2023/12/31 01:55:53;;;;;;;1.67;0.80;;;;;;;0.36;67.02;91120.09;5009247;28;20016;-85
2023/12/31 01:58:19;;;;;;;1.60;0.70;;;;;;;0.51;66.52;91120.59;5026509;28;20029;-84
2023/12/31 02:00:45;;;;;;;2.25;0.75;;;;;;;0.41;66.64;91112.09;5003375;28;20041;-85
2023/12/31 02:03:10;;;;;;;3.70;0.70;;;;;;;0.50;66.42;91108.66;5013467;28;20032;-85
2023/12/31 02:05:36;;;;;;;1.77;0.82;;;;;;;0.29;66.87;91104.22;5007219;28;20541;-84
2023/12/31 02:08:02;;;;;;;1.92;0.80;;;;;;;0.15;67.09;91107.06;5017741;28;20543;-84
2023/12/31 02:10:27;;;;;;;1.52;0.70;;;;;;;-0.01;67.30;91103.50;5018785;28;20036;-85
2023/12/31 02:12:55;;;;;;;1.50;0.50;;;;;;;0.06;66.85;91103.00;5022769;28;20380;-85
2023/12/31 02:15:33;;;;;;;1.05;0.55;;;;;;;-0.14;67.83;91105.25;5003015;28;20476;-84
2023/12/31 02:18:00;;;;;;;1.63;0.70;;;;;;;-0.44;68.84;91099.28;4999372;28;20708;-85
2023/12/31 02:20:28;;;;;;;1.50;0.73;;;;;;;-0.27;69.23;91101.03;5010325;28;20021;-85
2023/12/31 02:22:53;;;;;;;1.00;0.60;;;;;;;-0.33;69.45;91090.06;5011619;28;20033;-85
2023/12/31 02:25:23;;;;;;;1.65;0.77;;;;;;;-0.54;70.29;91081.44;5007444;28;20129;-84
2023/12/31 02:27:48;;;;;;;1.38;0.68;;;;;;;-0.46;70.03;91070.25;5033938;28;20036;-84
2023/12/31 02:30:14;;;;;;;1.60;0.60;;;;;;;-0.42;69.17;91081.56;5013835;28;20115;-84
2023/12/31 02:32:40;;;;;;;1.33;0.70;;;;;;;-0.50;70.06;91067.53;5027763;28;20497;-85
2023/12/31 02:35:05;;;;;;;2.38;0.90;;;;;;;-0.32;68.98;91067.44;5028407;28;20391;-84
2023/12/31 02:37:31;;;;;;;1.95;0.85;;;;;;;-0.22;68.13;91053.31;5030814;28;20059;-84
2023/12/31 02:39:56;;;;;;;1.70;0.70;;;;;;;-0.20;67.73;91051.19;5024158;28;20619;-84
2023/12/31 02:42:22;;;;;;;1.52;0.70;;;;;;;-0.20;67.77;91046.75;5025316;28;20107;-85
2023/12/31 02:44:48;;;;;;;1.00;0.40;;;;;;;-0.12;67.13;91047.75;5000639;28;20029;-85
2023/12/31 02:47:14;;;;;;;0.93;0.47;;;;;;;-0.25;67.07;91049.50;5033287;28;20553;-85
2023/12/31 02:49:39;;;;;;;0.63;0.30;;;;;;;-0.11;66.87;91042.25;5017294;28;20033;-85
2023/12/31 02:52:05;;;;;;;1.38;0.50;;;;;;;-0.11;66.23;91037.03;5000045;28;20044;-84
2023/12/31 02:54:30;;;;;;;0.82;0.43;;;;;;;0.01;65.80;91031.16;5030128;28;20608;-85
2023/12/31 02:56:56;;;;;;;1.02;0.38;;;;;;;0.11;65.51;91028.16;5024715;28;20119;-86
2023/12/31 02:59:21;;;;;;;0.57;0.45;;;;;;;0.04;64.87;91017.53;5016847;28;20667;-84
2023/12/31 03:01:48;;;;;;;0.75;0.40;;;;;;;0.09;64.77;91017.34;5006380;28;20064;-84
2023/12/31 03:04:13;;;;;;;0.63;0.20;;;;;;;0.06;64.99;91015.38;5033636;28;20548;-85
2023/12/31 03:06:39;;;;;;;1.00;0.38;;;;;;;-0.10;65.14;91009.22;5008402;28;20045;-85
2023/12/31 03:09:06;;;;;;;0.82;0.28;;;;;;;-0.05;66.01;91004.59;5033887;28;20032;-85
2023/12/31 03:11:33;;;;;;;0.38;0.20;;;;;;;-0.06;65.49;91003.06;5023329;28;20491;-84
2023/12/31 03:13:59;;;;;;;1.35;0.47;;;;;;;-0.10;65.52;91007.38;5034151;28;20041;-86
2023/12/31 03:16:25;;;;;;;1.10;0.40;;;;;;;-0.08;65.15;91012.25;5016762;28;20631;-85
2023/12/31 03:18:54;;;;;;;0.82;0.32;;;;;;;-0.08;65.12;91007.06;5030663;28;20060;-84
2023/12/31 03:21:20;;;;;;;0.50;0.30;;;;;;;-0.09;65.17;90998.50;5020089;28;20036;-85
2023/12/31 03:23:46;;;;;;;0.73;0.40;;;;;;;-0.03;65.12;90992.03;5013233;28;20029;-85
2023/12/31 03:26:12;;;;;;;0.55;0.20;;;;;;;-0.03;65.13;90988.66;5027150;28;20108;-85
2023/12/31 03:28:37;;;;;;;0.95;0.40;;;;;;;-0.01;65.04;90992.47;5007887;28;20402;-85
2023/12/31 03:31:03;;;;;;;0.75;0.35;;;;;;;0.04;64.49;90990.78;5009303;28;20044;-85
2023/12/31 03:33:29;;;;;;;0.52;0.22;;;;;;;0.09;63.90;90987.97;5005145;28;20107;-85
2023/12/31 03:35:56;;;;;;;2.42;0.45;;;;;;;0.14;63.99;90985.16;5007826;28;20494;-85
2023/12/31 03:38:22;;;;;;;1.20;0.40;;;;;;;-0.03;64.43;90983.47;5016776;28;20025;-85
2023/12/31 03:40:47;;;;;;;1.23;0.22;;;;;;;-0.15;64.83;90984.19;5043648;28;20082;-84
2023/12/31 03:43:14;;;;;;;1.45;0.47;;;;;;;-0.06;64.93;90997.88;5004723;28;20468;-85
2023/12/31 03:45:40;;;;;;;1.52;0.50;;;;;;;-0.13;64.73;90997.59;5041195;28;20043;-84
2023/12/31 03:48:06;;;;;;;2.15;0.30;;;;;;;-0.10;64.82;91001.41;5020512;28;20037;-84
2023/12/31 03:50:31;;;;;;;0.57;0.20;;;;;;;-0.13;65.17;90987.22;5032014;28;20490;-85
2023/12/31 03:52:57;;;;;;;0.43;0.30;;;;;;;-0.17;64.81;90969.97;5023874;28;20021;-84
2023/12/31 03:55:23;;;;;;;0.65;0.30;;;;;;;-0.28;65.12;90964.41;5020057;28;20029;-85
2023/12/31 03:57:49;;;;;;;0.35;0.25;;;;;;;-0.35;65.22;90962.31;5027184;28;20028;-85
2023/12/31 04:00:17;;;;;;;0.90;0.43;;;;;;;-0.37;65.54;90956.66;5021607;28;20059;-85
2023/12/31 04:02:43;;;;;;;0.93;0.30;;;;;;;-0.29;65.09;90957.69;5021544;28;20033;-85
2023/12/31 04:05:08;;;;;;;0.88;0.50;;;;;;;-0.38;65.02;90949.19;5015767;28;20215;-85
2023/12/31 04:07:35;;;;;;;0.40;0.30;;;;;;;-0.40;65.43;90940.94;5032957;28;20025;-83
2023/12/31 04:10:01;;;;;;;0.38;0.25;;;;;;;-0.33;65.02;90939.38;5034769;28;20029;-84
2023/12/31 04:12:26;;;;;;;0.47;0.28;;;;;;;-0.35;64.63;90925.94;5004809;28;20104;-85
2023/12/31 04:14:52;;;;;;;0.63;0.30;;;;;;;-0.27;65.27;90924.34;5035847;28;20036;-84
2023/12/31 04:17:18;;;;;;;0.88;0.30;;;;;;;-0.26;64.92;90908.44;5011604;28;20013;-84
2023/12/31 04:19:45;;;;;;;0.50;0.28;;;;;;;-0.35;64.94;90901.78;5027768;28;20033;-85
2023/12/31 04:22:10;;;;;;;0.77;0.35;;;;;;;-0.39;65.21;90906.88;5021117;28;20037;-84
2023/12/31 04:24:36;;;;;;;0.55;0.20;;;;;;;-0.60;66.28;90906.88;5016613;28;20033;-85
2023/12/31 04:27:02;;;;;;;0.60;0.38;;;;;;;-0.65;66.09;90906.28;5035713;28;20036;-84
2023/12/31 04:29:27;;;;;;;0.75;0.40;;;;;;;-0.75;67.12;90905.59;5053380;28;20055;-85
2023/12/31 04:31:52;;;;;;;1.80;0.22;;;;;;;-0.68;66.27;90906.94;5008538;28;20033;-84
2023/12/31 04:34:18;;;;;;;0.77;0.30;;;;;;;-0.60;65.02;90896.47;5013807;28;20021;-84
2023/12/31 04:36:44;;;;;;;0.45;0.20;;;;;;;-0.65;65.15;90901.84;5010668;28;20498;-85
2023/12/31 04:39:11;;;;;;;0.50;0.22;;;;;;;-0.56;65.01;90907.00;5036320;28;20036;-85
2023/12/31 04:41:36;;;;;;;0.50;0.22;;;;;;;-0.55;64.48;90896.28;5026684;28;20091;-84
2023/12/31 04:44:02;;;;;;;0.20;0.20;;;;;;;-0.48;64.25;90895.78;5044115;28;20041;-84
2023/12/31 04:46:27;;;;;;;2.30;0.30;;;;;;;-0.43;63.74;90894.81;5035243;28;20040;-85
2023/12/31 04:48:53;;;;;;;0.98;0.35;;;;;;;-0.31;63.01;90894.88;5019205;28;20024;-84
2023/12/31 04:51:29;;;;;;;0.95;0.28;;;;;;;-0.27;62.50;90890.56;5007101;28;20112;-85
2023/12/31 04:53:56;;;;;;;0.38;0.30;;;;;;;-0.36;62.98;90906.25;5022374;28;20500;-85
2023/12/31 04:56:23;;;;;;;0.95;0.20;;;;;;;-0.16;62.14;90904.69;5028305;28;20018;-85
2023/12/31 04:58:50;;;;;;;1.20;0.38;;;;;;;-0.20;62.41;90900.47;5032691;28;20143;-85
2023/12/31 05:01:16;;;;;;;0.80;0.38;;;;;;;-0.19;61.78;90892.31;5010235;28;20510;-85
2023/12/31 05:03:42;;;;;;;0.65;0.32;;;;;;;-0.26;62.16;90890.25;5023786;28;20111;-84
2023/12/31 05:06:10;;;;;;;1.80;0.30;;;;;;;-0.26;62.25;90879.84;5034771;28;20049;-84
2023/12/31 05:08:35;;;;;;;1.33;0.40;;;;;;;-0.13;62.14;90864.31;5018907;28;20033;-85
2023/12/31 05:11:01;;;;;;;0.90;0.30;;;;;;;-0.10;61.68;90866.25;5029131;28;20123;-85
2023/12/31 05:13:26;;;;;;;0.70;0.30;;;;;;;-0.11;62.07;90865.50;5021880;28;20083;-84
2023/12/31 05:15:52;;;;;;;0.22;0.20;;;;;;;-0.15;61.57;90859.44;5017022;28;20407;-84
2023/12/31 05:18:17;;;;;;;1.33;0.38;;;;;;;-0.20;61.79;90853.69;5028709;28;20025;-84
2023/12/31 05:20:43;;;;;;;0.20;0.13;;;;;;;-0.08;61.42;90851.13;5046235;28;20617;-85
2023/12/31 05:23:08;;;;;;;0.32;0.20;;;;;;;-0.16;61.50;90844.91;5018876;28;20112;-85
2023/12/31 05:25:34;;;;;;;0.40;0.20;;;;;;;-0.05;60.69;90859.03;5034513;28;20037;-85
2023/12/31 05:27:59;;;;;;;0.40;0.28;;;;;;;0.05;60.88;90844.09;5009375;28;20053;-84
2023/12/31 05:30:25;;;;;;;2.08;0.30;;;;;;;0.01;60.97;90846.59;5032519;28;20042;-85
2023/12/31 05:32:50;;;;;;;0.65;0.38;;;;;;;0.00;60.93;90852.88;5019462;28;20033;-84
2023/12/31 05:35:16;;;;;;;0.60;0.30;;;;;;;0.00;60.98;90850.28;5019133;28;20040;-84
2023/12/31 05:37:41;;;;;;;1.45;0.70;;;;;;;-0.03;61.50;90856.09;5051120;28;20064;-85
2023/12/31 05:40:07;;;;;;;1.13;0.47;;;;;;;-0.18;62.04;90844.50;5051154;28;20112;-85
2023/12/31 05:42:34;;;;;;;0.47;0.15;;;;;;;-0.16;61.64;90842.31;5019289;28;20033;-84
2023/12/31 05:44:59;;;;;;;0.25;0.20;;;;;;;-0.01;60.84;90844.28;5006587;28;20413;-84
2023/12/31 05:47:25;;;;;;;0.65;0.32;;;;;;;0.01;60.64;90838.78;5019960;28;20065;-84
2023/12/31 05:49:50;;;;;;;0.40;0.20;;;;;;;0.19;59.24;90827.13;5034629;28;20021;-85
2023/12/31 05:52:16;;;;;;;1.65;0.85;;;;;;;0.25;59.90;90812.06;5033525;28;20056;-84
2023/12/31 05:54:41;;;;;;;0.77;0.30;;;;;;;0.30;59.16;90806.66;5031030;28;20053;-85
2023/12/31 05:57:07;;;;;;;0.20;0.20;;;;;;;0.22;59.62;90816.06;5016440;28;20098;-85
2023/12/31 05:59:33;;;;;;;1.95;0.13;;;;;;;0.19;59.71;90815.97;5034721;28;20029;-86
2023/12/31 06:01:58;;;;;;;0.32;0.20;;;;;;;0.05;60.18;90811.06;5020522;28;20402;-84
2023/12/31 06:04:24;;;;;;;1.15;0.40;;;;;;;0.06;60.22;90810.00;4998856;28;20135;-85
2023/12/31 06:06:49;;;;;;;0.70;0.30;;;;;;;-0.03;60.88;90804.09;5008868;28;20044;-84
2023/12/31 06:09:15;;;;;;;0.60;0.30;;;;;;;-0.14;60.97;90801.19;5030303;28;20025;-84
2023/12/31 06:11:40;;;;;;;1.33;0.40;;;;;;;-0.16;61.42;90792.19;5007043;28;20022;-84
2023/12/31 06:14:06;;;;;;;0.43;0.17;;;;;;;0.01;60.81;90784.19;5030976;28;20124;-84
2023/12/31 06:16:32;;;;;;;0.60;0.30;;;;;;;0.02;60.34;90790.91;5034587;28;20025;-84
2023/12/31 06:18:58;;;;;;;0.80;0.40;;;;;;;-0.21;61.76;90777.56;5007762;28;20408;-85
2023/12/31 06:21:23;;;;;;;0.82;0.40;;;;;;;-0.35;62.41;90774.50;5010473;28;20017;-84
2023/12/31 06:23:48;;;;;;;0.55;0.30;;;;;;;-0.26;61.77;90772.56;5014260;28;20062;-84
2023/12/31 06:26:14;;;;;;;0.77;0.35;;;;;;;-0.40;62.43;90772.09;5033477;28;20045;-85
2023/12/31 06:28:39;;;;;;;0.80;0.32;;;;;;;-0.27;61.91;90771.81;5026179;28;20469;-84
2023/12/31 06:31:05;;;;;;;0.80;0.30;;;;;;;-0.26;61.29;90765.53;5020577;28;20033;-84
2023/12/31 06:33:30;;;;;;;29.08;13.68;;;;;;;-0.22;61.59;90757.09;5005979;28;20033;-87
2023/12/31 06:35:56;;;;;;;36.10;16.35;;;;;;;-0.05;61.20;90768.06;5007839;28;20025;-87
2023/12/31 06:38:22;;;;;;;1.80;0.82;;;;;;;-0.06;61.37;90763.94;5002567;28;20029;-84
2023/12/31 06:40:47;;;;;;;0.73;0.38;;;;;;;-0.17;62.25;90756.88;5034135;28;20049;-87
2023/12/31 06:43:13;;;;;;;1.48;0.43;;;;;;;-0.26;61.98;90746.59;5009635;28;20029;-84
2023/12/31 06:45:38;;;;;;;1.17;0.40;;;;;;;-0.21;61.19;90748.97;4964055;28;20037;-84
2023/12/31 06:48:04;;;;;;;0.75;0.30;;;;;;;-0.33;62.21;90730.75;5012735;28;20124;-83
2023/12/31 06:50:29;;;;;;;0.45;0.30;;;;;;;-0.35;61.80;90728.47;5000067;28;20036;-85
2023/12/31 06:52:55;;;;;;;0.60;0.40;;;;;;;-0.40;61.89;90736.47;5013058;28;20041;-84
2023/12/31 06:55:21;;;;;;;1.15;0.43;;;;;;;-0.30;62.24;90730.88;4996088;28;20025;-85
2023/12/31 06:57:47;;;;;;;1.50;0.35;;;;;;;-0.25;60.89;90732.50;5012092;28;20025;-84
2023/12/31 07:00:13;;;;;;;1.08;0.45;;;;;;;-0.25;60.55;90733.25;5024353;28;20036;-85
2023/12/31 07:02:38;;;;;;;0.70;0.40;;;;;;;-0.15;60.43;90731.31;5015749;28;20037;-85
2023/12/31 07:05:04;;;;;;;1.40;0.40;;;;;;;-0.26;60.54;90731.00;5007252;28;20029;-85
2023/12/31 07:07:30;;;;;;;1.80;0.60;;;;;;;-0.14;60.45;90740.66;5032461;28;20044;-85
2023/12/31 07:09:55;;;;;;;14.93;5.00;;;;;;;-0.09;60.88;90738.59;5032437;28;20497;-85
2023/12/31 07:12:21;;;;;;;22.00;9.88;;;;;;;-0.07;60.86;90731.22;5032388;28;20045;-85
2023/12/31 07:14:46;;;;;;;2.08;0.82;;;;;;;0.00;60.24;90730.72;5037027;28;20064;-84
2023/12/31 07:17:12;;;;;;;1.27;0.45;;;;;;;-0.15;61.52;90721.69;5029184;28;20036;-85
2023/12/31 07:19:39;;;;;;;0.90;0.40;;;;;;;-0.12;60.32;90718.47;5026675;28;20494;-86
2023/12/31 07:22:04;;;;;;;1.30;0.60;;;;;;;-0.09;60.53;90715.22;5014764;28;20116;-84
2023/12/31 07:24:32;;;;;;;0.88;0.40;;;;;;;0.08;60.15;90714.22;4996621;28;20033;-85
2023/12/31 07:26:58;;;;;;;0.80;0.30;;;;;;;0.00;60.03;90722.91;5012947;28;20135;-85
2023/12/31 07:29:24;;;;;;;0.90;0.38;;;;;;;0.08;59.81;90716.81;5036524;28;20036;-85
2023/12/31 07:31:49;;;;;;;1.58;0.50;;;;;;;0.13;59.67;90711.41;5004405;28;20021;-85
2023/12/31 07:34:15;;;;;;;0.98;0.50;;;;;;;0.11;59.79;90726.56;5032917;28;20383;-85
2023/12/31 07:36:41;;;;;;;1.20;0.60;;;;;;;-0.05;61.18;90725.72;5015340;28;20028;-85
2023/12/31 07:39:06;;;;;;;1.77;0.47;;;;;;;0.09;60.19;90726.16;5021897;28;20042;-86
2023/12/31 07:41:32;;;;;;;2.25;0.70;;;;;;;0.10;60.18;90727.66;5011017;28;20040;-84
2023/12/31 07:43:58;;;;;;;1.77;0.70;;;;;;;-0.01;60.64;90722.13;5032105;28;20033;-85
2023/12/31 07:46:24;;;;;;;1.08;0.52;;;;;;;0.18;59.81;90721.59;5017065;28;20033;-84
2023/12/31 07:48:51;;;;;;;16.20;6.40;;;;;;;0.16;60.39;90736.75;5030715;28;20475;-85
2023/12/31 07:51:17;;;;;;;20.80;9.50;;;;;;;0.40;59.82;90735.25;5018405;28;20045;-85
2023/12/31 07:53:42;;;;;;;2.33;0.82;;;;;;;0.45;59.51;90737.59;4997868;28;20116;-85
2023/12/31 07:56:08;;;;;;;1.17;0.60;;;;;;;0.51;58.95;90738.16;5012073;28;20032;-86
2023/12/31 07:58:34;;;;;;;1.52;0.50;;;;;;;0.64;58.30;90750.81;5012376;28;20059;-85
2023/12/31 08:01:02;;;;;;;1.02;0.50;;;;;;;0.53;59.54;90752.34;5008325;28;20041;-85
2023/12/31 08:03:28;;;;;;;1.92;0.70;;;;;;;0.61;59.13;90759.28;4997514;28;20043;-85
2023/12/31 08:05:54;;;;;;;1.20;0.57;;;;;;;0.78;58.51;90754.91;5011361;28;20017;-85
2023/12/31 08:08:20;;;;;;;1.02;0.50;;;;;;;0.74;60.19;90757.41;5003735;28;20053;-85
2023/12/31 08:10:45;;;;;;;0.68;0.35;;;;;;;1.02;57.83;90756.69;4996037;28;20124;-85
2023/12/31 08:13:11;;;;;;;1.90;0.60;;;;;;;1.09;57.74;90765.47;5025372;28;20657;-85
2023/12/31 08:15:37;;;;;;;2.80;0.80;;;;;;;1.18;58.99;90764.59;5025470;28;20111;-85
2023/12/31 08:18:04;;;;;;;1.10;0.43;;;;;;;1.27;59.30;90765.97;5031950;28;20062;-85
2023/12/31 08:20:29;;;;;;;1.52;0.70;;;;;;;1.40;59.80;90769.28;5017577;28;20029;-86
2023/12/31 08:22:55;;;;;;;3.38;1.20;;;;;;;1.60;60.08;90767.56;5008318;28;20037;-85
2023/12/31 08:25:20;;;;;;;3.17;1.52;;;;;;;1.72;59.70;90764.16;5025596;28;20112;-85
2023/12/31 08:27:46;;;;;;;36.38;16.10;;;;;;;1.82;60.29;90764.41;5024378;28;20036;-85
2023/12/31 08:30:11;;;;;;;1.60;0.90;;;;;;;1.74;60.19;90767.16;5026540;28;20056;-84
2023/12/31 08:32:37;;;;;;;2.78;0.88;;;;;;;1.33;60.38;90763.88;5015476;28;20498;-84
2023/12/31 08:35:03;;;;;;;2.40;0.93;;;;;;;1.33;58.53;90769.09;5011129;28;20025;-84
2023/12/31 08:37:29;;;;;;;3.45;0.95;;;;;;;1.44;58.26;90769.38;5047369;28;20108;-85
2023/12/31 08:39:54;;;;;;;1.92;0.80;;;;;;;1.45;58.70;90776.13;5023092;28;20116;-86
2023/12/31 08:42:20;;;;;;;2.15;0.80;;;;;;;1.50;60.58;90783.66;5003551;28;20124;-84
2023/12/31 08:44:46;;;;;;;2.47;0.90;;;;;;;1.50;61.90;90776.59;5005568;28;20029;-85
2023/12/31 08:47:11;;;;;;;1.60;0.82;;;;;;;1.55;63.00;90786.81;5016380;28;20041;-84
2023/12/31 08:49:38;;;;;;;3.60;1.02;;;;;;;1.71;62.48;90788.69;5008192;28;20028;-85
2023/12/31 08:52:04;;;;;;;1.27;0.80;;;;;;;1.77;61.62;90806.34;5043416;28;20032;-84
2023/12/31 08:54:30;;;;;;;2.53;0.70;;;;;;;1.74;60.90;90812.22;5023575;28;20037;-85
2023/12/31 08:56:55;;;;;;;4.75;1.73;;;;;;;1.72;62.72;90824.88;5006524;28;20044;-86
2023/12/31 08:59:21;;;;;;;3.33;1.70;;;;;;;1.69;62.09;90824.78;4994288;28;20491;-83
2023/12/31 09:01:46;;;;;;;28.92;11.75;;;;;;;1.73;60.51;90826.38;4999654;28;20475;-84
2023/12/31 09:04:12;;;;;;;2.63;1.10;;;;;;;1.88;59.00;90832.72;5009806;28;20476;-85
2023/12/31 09:06:38;;;;;;;0.22;0.20;;;;;;;2.05;57.69;90847.31;5014174;28;20045;-85
2023/12/31 09:09:04;;;;;;;1.13;0.40;;;;;;;2.18;57.52;90856.59;5011531;28;20033;-86
2023/12/31 09:11:30;;;;;;;0.75;0.32;;;;;;;2.30;57.00;90860.97;5010328;28;20040;-84
2023/12/31 09:13:56;;;;;;;2.83;0.50;;;;;;;2.40;57.10;90870.16;4993466;28;20041;-84
2023/12/31 09:16:21;;;;;;;1.23;0.50;;;;;;;2.95;63.59;90860.66;5030026;28;20033;-88
2023/12/31 09:18:47;;;;;;;0.50;0.35;;;;;;;3.58;53.34;90864.97;4999197;28;20017;-82
2023/12/31 09:21:12;;;;;;;1.05;0.50;;;;;;;3.79;52.30;90867.25;4990775;28;20070;-81
2023/12/31 09:23:38;;;;;;;1.00;0.50;;;;;;;3.96;52.76;90853.78;4997337;28;20053;-82
2023/12/31 09:26:03;;;;;;;0.30;0.30;;;;;;;4.10;52.52;90848.81;5000833;28;20104;-82
2023/12/31 09:28:29;;;;;;;1.95;0.80;;;;;;;4.30;52.73;90849.53;5000485;28;20030;-81
2023/12/31 09:30:54;;;;;;;1.30;0.50;;;;;;;4.44;53.07;90843.78;5011979;28;20030;-81
2023/12/31 09:33:20;;;;;;;1.70;0.38;;;;;;;4.56;53.38;90840.25;5013439;28;20030;-81
2023/12/31 09:35:45;;;;;;;1.38;0.70;;;;;;;4.64;53.99;90836.63;5030969;28;20369;-82
2023/12/31 09:38:11;;;;;;;0.73;0.40;;;;;;;4.68;54.11;90821.72;5013061;28;20030;-81
2023/12/31 09:40:37;;;;;;;1.02;0.40;;;;;;;4.70;54.31;90824.75;5014853;28;20043;-81
2023/12/31 09:43:03;;;;;;;1.20;0.60;;;;;;;4.77;54.16;90837.97;5010629;28;20076;-81
2023/12/31 09:45:30;;;;;;;0.95;0.40;;;;;;;4.80;54.10;90824.16;5014151;28;20044;-80
2023/12/31 09:47:59;;;;;;;1.10;0.50;;;;;;;4.88;53.33;90827.66;5001212;28;20493;-82
2023/12/31 09:50:25;;;;;;;2.08;0.68;;;;;;;5.00;53.28;90831.94;5015249;28;20083;-81
2023/12/31 09:52:54;;;;;;;1.58;0.80;;;;;;;5.09;53.62;90821.97;5010313;28;20403;-82
2023/12/31 09:55:20;;;;;;;2.25;0.70;;;;;;;5.21;54.24;90815.78;5028439;28;20029;-81
2023/12/31 09:57:52;;;;;;;2.42;0.60;;;;;;;5.21;52.99;90818.41;5035096;28;20024;-81
2023/12/31 10:00:19;;;;;;;1.15;0.57;;;;;;;5.27;52.09;90819.59;5009554;28;20037;-81
2023/12/31 10:02:45;;;;;;;1.30;0.60;;;;;;;5.43;52.02;90819.44;5041536;28;20048;-81
2023/12/31 10:05:11;;;;;;;0.70;0.40;;;;;;;5.46;52.56;90813.47;5008935;28;20036;-81
2023/12/31 10:07:36;;;;;;;0.47;0.30;;;;;;;5.55;52.47;90805.34;5049889;28;20029;-82
2023/12/31 10:10:03;;;;;;;0.52;0.32;;;;;;;5.64;51.10;90803.22;5032684;28;20072;-81
2023/12/31 10:12:29;;;;;;;2.03;1.10;;;;;;;5.84;50.53;90798.56;5039286;28;20033;-83
2023/12/31 10:14:55;;;;;;;2.60;1.10;;;;;;;5.93;50.04;90789.34;5011256;28;20035;-81
2023/12/31 10:17:20;;;;;;;2.08;0.60;;;;;;;6.10;49.71;90780.13;5030362;28;20033;-81
2023/12/31 10:19:46;;;;;;;1.23;0.70;;;;;;;6.24;51.17;90776.13;4988062;28;20041;-81
2023/12/31 10:22:13;;;;;;;1.60;0.47;;;;;;;6.41;51.03;90776.28;5000078;28;20072;-81
2023/12/31 10:24:40;;;;;;;2.00;0.60;;;;;;;6.59;51.64;90765.19;5025995;28;20503;-82
2023/12/31 10:27:08;;;;;;;1.77;0.90;;;;;;;6.75;51.24;90757.78;5033348;28;20030;-82
2023/12/31 10:30:11;;;;;;;213.27;101.03;;;;;;;7.01;51.25;90741.06;5075728;28;20389;-52
2023/12/31 10:32:37;;;;;;;10.35;5.82;;;;;;;7.13;49.86;90744.50;4949596;27;211031;-54
2023/12/31 10:35:04;;;;;;;3.83;1.65;;;;;;;7.19;50.49;90737.78;5034554;28;20033;-54
2023/12/31 10:37:29;;;;;;;2.83;1.20;;;;;;;7.24;52.31;90735.56;5027929;28;20037;-54
2023/12/31 10:39:55;;;;;;;2.63;1.13;;;;;;;7.28;53.29;90738.97;5027648;28;20402;-53
2023/12/31 10:42:22;;;;;;;2.20;1.02;;;;;;;7.36;53.58;90733.72;5027858;28;20037;-54
2023/12/31 10:44:49;;;;;;;2.58;1.10;;;;;;;7.42;52.45;90733.00;5030753;28;20037;-54
2023/12/31 10:47:18;;;;;;;2.80;1.05;;;;;;;7.54;52.65;90732.69;5048083;28;20482;-54
2023/12/31 10:49:46;;;;;;;2.90;1.05;;;;;;;7.66;52.68;90728.22;5047441;28;20032;-54
2023/12/31 10:52:14;;;;;;;2.88;0.80;;;;;;;7.77;51.83;90721.13;5035155;28;20037;-54
2023/12/31 10:54:44;;;;;;;1.17;0.60;;;;;;;7.90;50.89;90721.53;5027577;28;20028;-54
2023/12/31 10:57:10;;;;;;;2.03;0.60;;;;;;;7.90;51.17;90703.09;5024262;28;20548;-54
2023/12/31 10:59:36;;;;;;;1.00;0.50;;;;;;;7.98;50.06;90709.88;5028820;28;20033;-54
2023/12/31 11:02:05;;;;;;;2.72;0.70;;;;;;;8.05;48.87;90709.16;5030877;28;20041;-54
2023/12/31 11:04:32;;;;;;;2.08;0.70;;;;;;;8.11;49.05;90702.38;5036952;28;20037;-53
2023/12/31 11:07:00;;;;;;;132.52;63.83;;;;;;;8.25;49.10;90699.78;5032643;28;20165;-51
2023/12/31 11:09:27;;;;;;;37.55;17.42;;;;;;;8.39;48.97;90691.13;5038182;28;20040;-53
2023/12/31 11:11:52;;;;;;;33.63;16.73;;;;;;;8.50;49.00;90677.97;5025919;28;20037;-53
2023/12/31 11:14:24;;;;;;;5.68;2.55;;;;;;;8.55;48.76;90677.59;5009731;28;20048;-53
2023/12/31 11:17:05;;;;;;;3.08;0.90;;;;;;;8.53;47.87;90674.56;5034212;28;20030;-53
2023/12/31 11:20:05;;;;;;;1.55;0.50;;;;;;;8.42;49.23;90664.03;5026712;28;20088;-53
2023/12/31 11:22:46;;;;;;;1.48;0.70;;;;;;;8.41;49.59;90657.25;5023926;28;20030;-53
2023/12/31 11:25:18;;;;;;;1.50;0.73;;;;;;;8.45;48.13;90642.97;5035997;28;20454;-53
2023/12/31 11:27:45;;;;;;;1.63;0.70;;;;;;;8.45;50.00;90642.97;5033690;28;20048;-53
2023/12/31 11:30:12;;;;;;;2.42;0.57;;;;;;;8.40;50.48;90650.50;5036361;28;20025;-53
2023/12/31 11:32:37;;;;;;;0.73;0.38;;;;;;;8.32;48.56;90641.81;5031743;28;20050;-53
2023/12/31 11:35:05;;;;;;;0.93;0.32;;;;;;;8.23;47.03;90630.91;5026726;28;20125;-53